This is the latest recevied weather packets stored in our database for station/object KD2VWU. If no packets are shown the sender has not sent any weather packets the latest 1 day(s).
| Time | Temp. | Humidity | Pressure | Rain* | Wind** | Luminosity | Snow |
|---|---|---|---|---|---|---|---|
| 1778017781 | 23.89° C | 53% | 1004.6 hPa | 0 mm | 0 m/s | - | - |
| 1778017479 | 23.89° C | 52% | 1004.5 hPa | 0 mm | 0.45 m/s, 102° | - | - |
| 1778017176 | 23.89° C | 52% | 1004.4 hPa | 0 mm | 0.89 m/s, 180° | - | - |
| 1778016873 | 23.89° C | 53% | 1004.3 hPa | 0 mm | 0 m/s | - | - |
| 1778016569 | 24.44° C | 53% | 1004.3 hPa | 0 mm | 0 m/s | - | - |
| 1778016266 | 24.44° C | 52% | 1004.3 hPa | 0 mm | 0 m/s | - | - |
| 1778015963 | 25° C | 52% | 1004.3 hPa | 0 mm | 0.89 m/s, 220° | - | - |
| 1778015660 | 25° C | 50% | 1004.3 hPa | 0 mm | 1.34 m/s, 272° | - | - |
| 1778015357 | 25.56° C | 47% | 1004.1 hPa | 0 mm | 1.34 m/s, 270° | - | - |
| 1778015063 | 25.56° C | 51% | 1004 hPa | 0 mm | 0.89 m/s, 48° | - | - |
| 1778014751 | 25.56° C | 52% | 1004.1 hPa | 0 mm | 0.45 m/s, 130° | - | - |
| 1778014449 | 25.56° C | 49% | 1004.1 hPa | 0 mm | 2.24 m/s, 258° | - | - |
| 1778014145 | 25.56° C | 50% | 1004.3 hPa | 0 mm | 1.34 m/s, 240° | - | - |
| 1778013843 | 25.56° C | 52% | 1004 hPa | 0 mm | 0 m/s | - | - |
| 1778013540 | 25° C | 51% | 1004.3 hPa | 0 mm | 0 m/s | - | - |
| 1778013237 | 25.56° C | 49% | 1004.5 hPa | 0 mm | 2.24 m/s, 205° | - | - |
| 1778012933 | 26.11° C | 50% | 1004.5 hPa | 0 mm | 1.34 m/s, 133° | - | - |
| 1778012629 | 26.67° C | 48% | 1004.5 hPa | 0 mm | 0.89 m/s, 174° | - | - |
| 1778012326 | 26.11° C | 48% | 1004.4 hPa | 0 mm | 0.45 m/s, 221° | - | - |
| 1778012023 | 26.67° C | 48% | 1004.6 hPa | 0 mm | 1.34 m/s, 268° | - | - |
| 1778011722 | 26.11° C | 48% | 1004.7 hPa | 0 mm | 1.34 m/s, 97° | - | - |
| 1778011418 | 26.11° C | 48% | 1004.4 hPa | 0 mm | 1.34 m/s, 306° | - | - |
| 1778011114 | 26.11° C | 50% | 1004.5 hPa | 0 mm | 1.34 m/s, 138° | - | - |
| 1778010811 | 26.11° C | 51% | 1004.6 hPa | 0 mm | 0.45 m/s, 199° | - | - |
| 1778010508 | 26.67° C | 47% | 1004.6 hPa | 0 mm | 1.34 m/s, 208° | - | - |
* Rain latest hour (hover to see other rain measurements)
** Current wind speed in m/s (hover to see current wind gust speed)